Tipton Airport
KFME : rendu visible

Aérodrome :











RETROUVEZ-NOUS SUR...

 
LOGIN :

S'inscrire | Disclaimer

   EN    FR    IT 

 









Légende :    VFR   VFR Marginal   IFR   IFR Intensif   IFR Très Intensif
Visi : 
Plafond : 
>= 8 km
>= 3000ft
5 à 8 km
1000 à 3000 ft
1500m à 5 km
500 à 1000 ft
800 à 1500m
200 à 500 ft
< 800m
< 200 ft
Symboles :   Orages  Brouillard  Fortes neiges  Fortes précipitations  Vent > 20 kt






- Altitude de l'aérodrome : 150 ft


KFME - Tipton

DERNIER METAR :
  • 121121Z AUTO 26005KT 7SM OVC034 10/09 A2983 RMK AO1

METARs EXPIRÉS :
  • 121100Z AUTO 25004KT 5SM BKN034 BKN044 OVC075 10/10 A2983 RMK AO1
  • 121042Z AUTO 25006KT 7SM SCT040 OVC075 10/09 A2981 RMK AO1
  • 121021Z AUTO 27004KT 7SM SCT040 BKN055 OVC075 10/09 A2981 RMK AO1
  • 121000Z AUTO 25004KT 5SM BKN065 OVC075 10/09 A2980 RMK AO1
  • 120942Z AUTO 24003KT 7SM BKN075 OVC085 10/09 A2980 RMK AO1
  • 120921Z AUTO 25003KT 10SM BKN085 OVC090 11/09 A2978 RMK AO1
  • 120900Z AUTO 22003KT 10SM OVC085 11/08 A2978 RMK AO1
  • 120842Z AUTO 24006KT 10SM SCT070 OVC085 13/06 A2978 RMK AO1

TAF N/A



MET'MAP, la Météo Aéronautique d'un coup d'oeil ! - Copyright ORBIFLY Décembre 2007 - Disclaimer

ORBIFLY MET'MAP TEAM :

Programmation & Développement : Alexandra Zaïnal
Conception & Développement : Baudouin d'Aumeries
Co-Programmation & Développement : Marc-Olivier Méhu
Soutien technique & logistique : Manuel Goepfert

Contact : metmap@orbifly.com




SOURCES & CREDITS :

   NOAA       Earth
Advisory